Time;durP1;ratioP1;P1;durP2;ratioP2;P2;SDS_P1;SDS_P2;PMS_P1;PMS_P2;Temp;Humidity;BMP_temperature;BMP_pressure;BME280_temperature;BME280_humidity;BME280_pressure;Samples;Min_cycle;Max_cycle;Signal;HPM_P1;HPM_P2
2023/04/07 00:01:06;;;;;;;14.68;10.35;;;;;;;8.19;66.27;100314.53;10329339;28;20046;-77
2023/04/07 00:06:09;;;;;;;13.65;9.77;;;;;;;8.16;66.79;100323.63;10328608;28;20070;-76
2023/04/07 00:11:13;;;;;;;14.55;10.13;;;;;;;8.12;66.73;100315.97;10319794;28;20080;-75
2023/04/07 00:16:16;;;;;;;18.45;10.30;;;;;;;8.06;66.00;100319.06;10328276;28;20478;-75
2023/04/07 00:21:19;;;;;;;14.52;8.85;;;;;;;7.85;65.11;100319.63;10318584;28;20057;-75
2023/04/07 00:26:24;;;;;;;12.00;9.15;;;;;;;7.84;65.71;100311.72;10331792;28;20042;-75
2023/04/07 00:31:27;;;;;;;12.23;8.98;;;;;;;7.71;64.99;100312.59;10333338;28;20043;-76
2023/04/07 00:36:30;;;;;;;14.13;9.70;;;;;;;7.68;65.24;100312.81;10323706;28;20121;-75
2023/04/07 00:41:35;;;;;;;13.35;9.10;;;;;;;7.83;65.16;100302.84;10336943;28;20062;-77
2023/04/07 00:46:39;;;;;;;12.85;8.75;;;;;;;7.79;65.19;100297.81;10312841;28;20070;-75
2023/04/07 00:51:42;;;;;;;13.52;9.02;;;;;;;7.77;65.57;100305.09;10318559;28;20043;-75
2023/04/07 00:56:47;;;;;;;14.30;9.15;;;;;;;7.97;65.80;100303.69;10328957;28;20054;-74
2023/04/07 01:01:57;;;;;;;14.27;9.35;;;;;;;7.98;65.68;100286.66;10327176;28;20089;-75
2023/04/07 01:07:05;;;;;;;14.70;9.45;;;;;;;7.92;65.21;100283.44;10315066;28;20465;-75
2023/04/07 01:12:27;;;;;;;11.90;9.13;;;;;;;7.88;65.20;100283.81;10321503;28;20035;-76
2023/04/07 01:17:34;;;;;;;12.95;9.15;;;;;;;7.83;64.63;100288.63;10331478;28;20042;-76
2023/04/07 01:22:42;;;;;;;14.55;9.23;;;;;;;7.87;64.54;100285.63;10312301;28;20054;-76
2023/04/07 01:28:08;;;;;;;12.68;8.48;;;;;;;7.79;65.23;100269.28;10319281;28;20055;-75
2023/04/07 01:33:15;;;;;;;10.27;8.02;;;;;;;7.79;64.54;100279.97;10322050;28;20043;-75
2023/04/07 01:38:19;;;;;;;10.50;7.90;;;;;;;7.75;64.27;100274.94;10323022;28;20062;-76
2023/04/07 01:43:24;;;;;;;12.32;8.45;;;;;;;7.77;64.85;100281.88;10317187;28;20046;-76
2023/04/07 01:48:29;;;;;;;10.70;7.80;;;;;;;7.84;64.79;100274.25;10326280;28;20066;-75
2023/04/07 01:53:33;;;;;;;12.95;7.90;;;;;;;7.65;65.61;100285.41;10319052;28;20445;-75
2023/04/07 01:58:36;;;;;;;10.52;7.60;;;;;;;7.64;66.06;100279.22;10324101;28;20046;-75
2023/04/07 02:03:49;;;;;;;10.52;7.65;;;;;;;7.53;67.38;100276.44;10330995;28;20445;-75
2023/04/07 02:08:57;;;;;;;9.93;7.35;;;;;;;7.37;68.98;100275.78;10332731;28;20041;-75
2023/04/07 02:14:01;;;;;;;12.02;8.50;;;;;;;7.41;70.40;100275.50;10340144;28;20046;-76
2023/04/07 02:19:09;;;;;;;12.65;8.45;;;;;;;7.16;69.66;100272.78;10323783;28;20053;-76
2023/04/07 02:24:12;;;;;;;12.23;8.38;;;;;;;7.25;71.00;100256.97;10323985;28;20113;-77
2023/04/07 02:29:15;;;;;;;15.38;8.52;;;;;;;7.29;72.16;100262.97;10321531;28;20090;-75
2023/04/07 02:34:20;;;;;;;12.48;8.82;;;;;;;7.27;73.57;100268.44;10330899;28;20082;-76
2023/04/07 02:39:23;;;;;;;15.98;9.80;;;;;;;7.16;73.36;100268.31;10338135;28;20043;-77
2023/04/07 02:44:25;;;;;;;16.20;10.40;;;;;;;7.04;74.09;100274.47;10335162;28;20074;-76
2023/04/07 02:49:30;;;;;;;19.17;12.85;;;;;;;6.89;74.97;100268.38;10319732;28;20097;-75
2023/04/07 02:54:34;;;;;;;21.33;13.32;;;;;;;6.81;75.71;100268.84;10322923;28;20417;-75
2023/04/07 02:59:37;;;;;;;19.63;13.80;;;;;;;6.52;76.09;100265.44;10320678;28;20414;-77
2023/04/07 03:04:43;;;;;;;22.08;13.57;;;;;;;6.56;76.48;100266.97;10328086;28;20070;-77
2023/04/07 03:09:45;;;;;;;22.17;14.00;;;;;;;6.64;77.69;100271.81;10325425;28;20035;-77
2023/04/07 03:14:52;;;;;;;22.70;13.82;;;;;;;6.68;78.74;100267.97;10324799;28;20082;-75
2023/04/07 03:19:58;;;;;;;22.02;14.40;;;;;;;6.66;78.06;100267.19;10330393;28;20042;-76
2023/04/07 03:25:02;;;;;;;22.58;14.57;;;;;;;6.76;78.42;100278.13;10317908;28;20070;-76
2023/04/07 03:30:06;;;;;;;24.48;15.00;;;;;;;6.70;78.73;100271.38;10326685;28;20065;-75
2023/04/07 03:35:11;;;;;;;25.13;15.18;;;;;;;6.57;78.83;100268.66;10323901;28;20417;-77
2023/04/07 03:40:15;;;;;;;22.15;15.02;;;;;;;6.50;79.22;100259.38;10329159;23;20054;-80
2023/04/07 03:45:18;;;;;;;25.45;15.77;;;;;;;6.47;79.63;100264.03;10314281;28;20410;-80
2023/04/07 03:50:25;;;;;;;29.27;16.67;;;;;;;6.48;80.25;100271.09;10313100;28;20110;-80
2023/04/07 03:55:38;;;;;;;26.67;16.58;;;;;;;6.44;80.58;100274.91;10305683;28;20047;-80
2023/04/07 04:00:52;;;;;;;30.42;18.30;;;;;;;6.46;81.16;100270.34;10293735;28;20043;-80
2023/04/07 04:05:56;;;;;;;30.60;17.52;;;;;;;6.34;81.16;100270.19;10306430;28;20090;-79
2023/04/07 04:11:03;;;;;;;30.90;19.38;;;;;;;6.21;81.09;100276.41;10304851;28;20485;-80
2023/04/07 04:16:12;;;;;;;29.90;17.23;;;;;;;6.26;81.34;100277.84;10305931;28;20259;-81
2023/04/07 04:21:19;;;;;;;32.97;19.10;;;;;;;6.27;81.69;100282.19;10307918;28;20039;-79
2023/04/07 04:26:24;;;;;;;29.45;18.15;;;;;;;6.15;81.80;100285.69;10301792;28;20533;-80
2023/04/07 04:31:31;;;;;;;27.58;17.35;;;;;;;6.17;81.63;100281.06;10305113;28;20066;-80
2023/04/07 04:36:36;;;;;;;27.95;16.48;;;;;;;6.16;81.64;100284.72;10304009;28;20426;-80
2023/04/07 04:41:41;;;;;;;30.10;18.92;;;;;;;6.16;81.85;100284.72;10306342;28;20042;-80
2023/04/07 04:46:48;;;;;;;30.25;18.73;;;;;;;6.15;81.76;100294.53;10306284;28;20126;-81
2023/04/07 04:51:52;;;;;;;27.60;17.08;;;;;;;6.19;82.00;100300.50;10311159;28;20043;-80
2023/04/07 04:56:56;;;;;;;29.00;18.70;;;;;;;6.09;81.91;100300.25;10307503;28;20042;-80
2023/04/07 05:01:59;;;;;;;27.83;17.55;;;;;;;6.15;81.73;100305.19;10304691;28;20510;-81
2023/04/07 05:07:04;;;;;;;31.02;18.67;;;;;;;6.11;81.61;100301.00;10302791;28;20676;-79
2023/04/07 05:12:07;;;;;;;29.20;18.13;;;;;;;6.28;81.67;100305.28;10306632;28;20026;-80
2023/04/07 05:17:16;;;;;;;27.60;16.63;;;;;;;6.29;81.49;100316.81;10298478;28;20106;-78
2023/04/07 05:22:21;;;;;;;27.98;18.88;;;;;;;6.31;81.60;100318.41;10294538;28;20035;-80
2023/04/07 05:27:26;;;;;;;29.30;17.63;;;;;;;6.33;81.41;100315.63;10305534;28;20038;-78
2023/04/07 05:32:33;;;;;;;30.83;18.10;;;;;;;6.42;80.69;100319.50;10304148;28;20082;-78
2023/04/07 05:37:44;;;;;;;28.70;17.55;;;;;;;6.33;80.22;100320.97;10297272;28;20061;-78
2023/04/07 05:42:47;;;;;;;29.80;17.38;;;;;;;6.36;80.37;100321.66;10297559;28;20038;-78
2023/04/07 05:47:50;;;;;;;25.77;16.67;;;;;;;6.35;80.50;100319.91;10297491;28;20047;-79
2023/04/07 05:53:02;;;;;;;29.50;17.30;;;;;;;6.60;80.43;100329.84;10308646;28;20054;-80
2023/04/07 05:58:06;;;;;;;23.58;15.45;;;;;;;6.62;80.16;100327.09;10296749;28;20047;-79
2023/04/07 06:03:10;;;;;;;25.73;16.02;;;;;;;6.58;79.34;100329.13;10303649;28;20046;-80
2023/04/07 06:08:28;;;;;;;22.25;13.82;;;;;;;6.63;78.67;100334.97;10306248;28;20043;-78
2023/04/07 06:13:31;;;;;;;23.60;15.68;;;;;;;6.72;78.30;100346.91;10305268;28;20050;-79
2023/04/07 06:18:34;;;;;;;21.45;13.82;;;;;;;6.80;77.40;100343.69;10307193;28;20047;-79
2023/04/07 06:23:38;;;;;;;22.42;14.57;;;;;;;6.92;76.53;100355.44;10305540;28;20083;-81
2023/04/07 06:28:42;;;;;;;20.65;11.70;;;;;;;6.88;75.67;100351.25;10305577;28;20070;-81
2023/04/07 06:33:45;;;;;;;18.65;12.60;;;;;;;7.01;75.48;100352.16;10321871;28;20051;-82
2023/04/07 06:38:49;;;;;;;17.35;11.80;;;;;;;7.18;74.83;100362.53;10328840;28;20083;-80
2023/04/07 06:43:52;;;;;;;15.98;11.10;;;;;;;7.06;74.15;100368.72;10321342;28;20101;-81
2023/04/07 06:48:55;;;;;;;18.10;11.05;;;;;;;7.24;73.84;100369.28;10310707;28;20031;-82
2023/04/07 06:53:59;;;;;;;17.48;11.65;;;;;;;7.14;72.61;100374.41;10317871;28;20046;-81
2023/04/07 06:59:02;;;;;;;15.82;10.85;;;;;;;7.34;72.73;100374.88;10327106;28;20054;-81
2023/04/07 07:04:05;;;;;;;14.57;10.60;;;;;;;7.31;71.57;100375.09;10329714;28;20042;-81
2023/04/07 07:09:10;;;;;;;16.13;9.93;;;;;;;7.50;71.63;100379.06;10320741;28;20051;-81
2023/04/07 07:14:13;;;;;;;14.40;9.88;;;;;;;7.73;70.79;100376.63;10329923;28;20046;-82
2023/04/07 07:19:16;;;;;;;16.20;10.63;;;;;;;7.84;70.45;100392.78;10325869;28;20047;-81
2023/04/07 07:24:20;;;;;;;11.15;8.55;;;;;;;7.80;69.16;100403.81;10322881;28;20030;-80
2023/04/07 07:29:23;;;;;;;14.27;9.98;;;;;;;7.98;69.95;100399.88;10310326;28;20039;-82
2023/04/07 07:34:51;;;;;;;13.27;9.23;;;;;;;8.00;68.42;100405.09;11641928;23;20051;-77
2023/04/07 07:39:55;;;;;;;13.00;8.10;;;;;;;8.70;70.79;100407.28;10273575;28;20046;-77
2023/04/07 07:44:58;;;;;;;9.82;8.18;;;;;;;8.83;67.93;100408.06;10290032;28;20046;-77
2023/04/07 07:50:00;;;;;;;11.63;8.13;;;;;;;9.18;68.27;100418.88;10276012;28;20427;-78
2023/04/07 07:55:06;;;;;;;;;;;;;;;9.35;66.78;100424.78;10285513;28;20039;-79
2023/04/07 08:00:10;;;;;;;10.30;8.05;;;;;;;9.28;64.48;100417.22;10271779;28;20001;-79
2023/04/07 08:05:16;;;;;;;9.13;6.88;;;;;;;9.32;63.27;100431.25;10286888;28;20581;-79
2023/04/07 08:15:51;;;;;;;9.07;6.38;;;;;;;9.97;64.08;100437.09;10635242;23;19926;-76
2023/04/07 08:27:54;;;;;;;7.53;5.30;;;;;;;9.56;62.35;100446.47;10293717;23;20050;-80
2023/04/07 08:32:59;;;;;;;7.63;6.30;;;;;;;10.15;61.56;100446.41;10347420;28;20046;-83
2023/04/07 08:38:02;;;;;;;9.45;7.22;;;;;;;10.34;57.62;100451.19;10354767;28;20042;-82
2023/04/07 08:43:09;;;;;;;14.90;7.97;;;;;;;10.76;57.45;100452.25;10343895;28;20125;-83
2023/04/07 08:48:17;;;;;;;12.02;7.38;;;;;;;10.55;56.52;100460.19;10342282;28;20053;-81
2023/04/07 08:53:28;;;;;;;10.32;7.15;;;;;;;10.57;57.18;100452.03;10347007;28;20149;-83
2023/04/07 08:58:31;;;;;;;8.75;7.80;;;;;;;10.72;56.11;100455.31;10342372;28;20056;-83
2023/04/07 09:03:36;;;;;;;10.23;7.63;;;;;;;10.57;54.63;100462.78;10346945;28;20117;-83
2023/04/07 09:08:39;;;;;;;8.43;7.22;;;;;;;10.59;54.33;100460.81;10336352;28;20046;-81
2023/04/07 09:13:41;;;;;;;8.23;7.07;;;;;;;11.53;54.96;100451.34;10354949;28;20120;-80
2023/04/07 09:18:46;;;;;;;8.85;6.35;;;;;;;12.15;51.62;100463.13;10335287;28;20057;-81
2023/04/07 09:23:49;;;;;;;6.63;5.93;;;;;;;12.59;49.73;100466.50;10343340;28;20052;-81
2023/04/07 09:28:54;;;;;;;8.75;6.65;;;;;;;12.36;50.48;100469.34;10342139;28;20073;-82
2023/04/07 09:33:58;;;;;;;6.88;5.72;;;;;;;12.04;50.57;100461.34;10331476;28;20042;-82
2023/04/07 09:39:08;;;;;;;6.88;5.93;;;;;;;12.60;48.10;100460.97;10346021;28;20097;-81
2023/04/07 09:44:11;;;;;;;6.88;5.53;;;;;;;12.56;48.02;100467.63;10333491;28;20498;-81
2023/04/07 09:49:15;;;;;;;9.20;7.30;;;;;;;12.19;48.41;100467.25;10356222;28;20046;-80
2023/04/07 09:54:32;;;;;;;6.30;5.60;;;;;;;12.22;48.70;100474.22;10339091;28;20047;-80
2023/04/07 09:59:37;;;;;;;8.18;6.72;;;;;;;12.62;48.07;100470.78;10339794;28;20529;-80
2023/04/07 10:04:41;;;;;;;8.10;6.53;;;;;;;12.67;46.89;100474.75;10328975;28;20077;-80
2023/04/07 10:09:44;;;;;;;7.22;5.88;;;;;;;12.50;47.05;100467.28;10338717;28;20046;-79
2023/04/07 10:14:47;;;;;;;9.10;6.78;;;;;;;12.95;47.07;100464.22;10371393;28;20077;-81
2023/04/07 10:19:52;;;;;;;7.97;6.63;;;;;;;13.18;44.93;100472.91;10339367;28;20046;-81
2023/04/07 10:24:58;;;;;;;8.05;6.70;;;;;;;12.92;45.62;100475.28;10350623;28;20700;-79
2023/04/07 10:30:06;;;;;;;10.63;7.75;;;;;;;13.87;43.29;100471.97;10346343;28;20130;-78
2023/04/07 10:35:10;;;;;;;9.40;7.93;;;;;;;14.53;42.72;100481.94;10350036;28;20054;-82
2023/04/07 10:40:30;;;;;;;9.68;7.93;;;;;;;15.43;39.76;100472.25;10339111;28;20077;-80
2023/04/07 10:45:55;;;;;;;17.13;11.07;;;;;;;15.31;39.22;100481.56;10345091;28;20050;-79
2023/04/07 10:51:29;;;;;;;12.07;8.82;;;;;;;14.61;39.24;100490.16;10358164;28;20549;-83
2023/04/07 10:57:08;;;;;;;11.50;8.88;;;;;;;15.25;39.29;100478.47;10335460;28;20077;-82
2023/04/07 11:02:33;;;;;;;12.07;9.07;;;;;;;15.18;38.42;100490.03;10362889;28;20048;-83
2023/04/07 11:07:46;;;;;;;14.10;9.32;;;;;;;16.63;37.35;100477.09;10347586;28;20494;-80
2023/04/07 11:13:00;;;;;;;14.02;9.93;;;;;;;18.64;34.25;100482.25;10334079;28;20478;-79
2023/04/07 11:18:10;;;;;;;13.13;10.35;;;;;;;16.11;35.85;100482.47;10341343;28;20042;-80
2023/04/07 11:23:17;;;;;;;14.43;10.80;;;;;;;15.35;36.93;100491.09;10346496;28;20046;-83
2023/04/07 11:28:20;;;;;;;14.10;11.68;;;;;;;16.04;36.05;100487.66;10330672;28;20520;-83
2023/04/07 11:33:26;;;;;;;13.88;12.00;;;;;;;16.43;34.88;100490.03;10345494;28;20080;-81
2023/04/07 11:38:35;;;;;;;13.48;11.02;;;;;;;16.42;32.76;100482.88;10342659;28;20054;-79
2023/04/07 11:43:40;;;;;;;16.67;12.20;;;;;;;17.68;31.72;100485.75;10348061;28;20066;-82
2023/04/07 11:48:46;;;;;;;14.07;10.75;;;;;;;17.08;32.48;100481.31;10346753;28;20468;-79
2023/04/07 11:53:55;;;;;;;13.13;10.63;;;;;;;17.46;33.89;100496.22;10344842;28;20042;-80
2023/04/07 11:58:58;;;;;;;11.02;9.82;;;;;;;16.07;33.88;100497.34;10350996;28;20053;-80
2023/04/07 12:04:02;;;;;;;13.73;9.75;;;;;;;15.81;33.64;100494.59;10340292;28;20044;-81
2023/04/07 12:09:08;;;;;;;14.95;10.90;;;;;;;17.38;32.79;100488.06;10346279;28;20066;-79
2023/04/07 12:14:11;;;;;;;13.50;10.68;;;;;;;18.31;31.09;100503.25;10354061;28;20044;-80
2023/04/07 12:19:14;;;;;;;11.77;10.00;;;;;;;18.55;31.02;100496.94;10337948;28;20054;-78
2023/04/07 12:24:18;;;;;;;13.55;10.70;;;;;;;18.05;30.11;100493.44;10357231;28;20066;-80
2023/04/07 12:29:21;;;;;;;15.18;11.63;;;;;;;17.56;32.17;100501.50;10337325;28;20050;-81
2023/04/07 12:34:23;;;;;;;16.90;11.98;;;;;;;16.86;32.84;100506.34;10339623;28;20117;-79
2023/04/07 12:39:28;;;;;;;15.15;11.82;;;;;;;18.00;31.47;100501.25;10342530;28;20042;-80
2023/04/07 12:44:31;;;;;;;14.73;11.95;;;;;;;20.05;28.60;100489.50;10345956;28;20065;-79
2023/04/07 12:49:34;;;;;;;13.25;11.23;;;;;;;20.46;27.87;100502.75;10347988;28;20065;-80
2023/04/07 12:54:39;;;;;;;12.85;10.80;;;;;;;18.32;31.58;100507.66;10348201;28;20446;-79
2023/04/07 12:59:41;;;;;;;13.65;11.48;;;;;;;21.03;28.64;100507.56;10360167;28;20038;-80
2023/04/07 13:04:45;;;;;;;13.43;10.90;;;;;;;19.46;29.92;100509.16;10342948;28;20105;-82
2023/04/07 13:09:50;;;;;;;12.85;10.60;;;;;;;17.90;32.75;100505.97;10350369;28;20124;-81
2023/04/07 13:14:52;;;;;;;12.38;11.05;;;;;;;16.28;33.10;100507.88;10334948;28;20049;-82
2023/04/07 13:20:02;;;;;;;14.73;11.07;;;;;;;15.55;34.73;100514.34;10342407;28;20070;-81
2023/04/07 13:25:07;;;;;;;14.98;11.73;;;;;;;16.16;33.53;100507.25;10336969;28;20224;-82
2023/04/07 13:30:11;;;;;;;14.82;11.35;;;;;;;18.07;31.56;100498.69;10336585;28;20098;-79
2023/04/07 13:35:16;;;;;;;15.27;10.80;;;;;;;18.93;29.86;100499.91;10335745;28;20050;-79
2023/04/07 13:40:20;;;;;;;15.05;11.07;;;;;;;18.76;29.84;100508.09;10329048;28;20046;-83
2023/04/07 13:45:23;;;;;;;13.82;10.85;;;;;;;19.10;29.72;100493.34;10334659;28;20478;-81
2023/04/07 13:50:26;;;;;;;11.73;9.50;;;;;;;17.92;31.14;100487.63;10332586;28;20051;-82
2023/04/07 13:55:30;;;;;;;14.23;10.77;;;;;;;18.01;30.81;100486.63;10348116;28;20077;-80
2023/04/07 14:00:34;;;;;;;15.05;10.88;;;;;;;19.21;29.46;100492.94;10369747;28;20065;-81
2023/04/07 14:05:37;;;;;;;12.75;10.57;;;;;;;17.73;31.28;100494.25;10356769;28;20505;-82
2023/04/07 14:10:42;;;;;;;11.77;10.48;;;;;;;19.31;29.16;100492.75;10347568;28;20054;-82
2023/04/07 14:15:45;;;;;;;11.65;9.18;;;;;;;20.63;29.13;100478.91;10340338;28;20034;-80
2023/04/07 14:20:48;;;;;;;11.88;9.45;;;;;;;19.33;30.49;100481.66;10340455;28;20056;-82
2023/04/07 14:25:52;;;;;;;12.50;9.02;;;;;;;18.91;31.77;100489.19;10337926;28;20038;-81
2023/04/07 14:30:55;;;;;;;5.60;3.92;;;;;;;20.01;30.74;100482.72;10313563;23;20043;-80
2023/04/07 14:35:58;;;;;;;12.77;10.30;;;;;;;20.58;26.68;100484.06;10287623;29;20079;-81
2023/04/07 14:41:02;;;;;;;10.60;9.50;;;;;;;20.66;26.50;100484.81;10256084;29;20090;-82
2023/04/07 14:46:08;;;;;;;14.23;11.15;;;;;;;21.34;26.22;100484.69;10215222;29;20059;-82
2023/04/07 14:51:12;;;;;;;11.85;10.27;;;;;;;19.70;26.94;100491.81;10215151;29;20058;-78
2023/04/07 14:56:16;;;;;;;12.73;10.77;;;;;;;18.40;27.93;100495.94;10211218;29;20040;-83
2023/04/07 15:01:19;;;;;;;14.68;11.48;;;;;;;17.48;29.41;100491.47;10205389;29;20112;-83
2023/04/07 15:06:22;;;;;;;12.93;10.73;;;;;;;16.73;31.29;100506.78;10227489;29;20187;-83
2023/04/07 15:11:26;;;;;;;14.10;11.02;;;;;;;16.30;31.49;100504.00;10209048;29;20047;-83
2023/04/07 15:16:29;;;;;;;16.60;11.77;;;;;;;16.22;31.37;100506.63;10204104;29;20051;-82
2023/04/07 15:21:32;;;;;;;14.20;11.13;;;;;;;17.38;29.93;100508.94;10207775;29;20047;-80
2023/04/07 15:26:36;;;;;;;14.02;10.68;;;;;;;17.19;30.11;100510.06;10208490;29;20082;-82
2023/04/07 15:31:39;;;;;;;15.23;11.40;;;;;;;16.43;31.24;100517.13;10201674;29;20050;-80
2023/04/07 15:36:42;;;;;;;16.15;11.00;;;;;;;15.72;31.61;100518.06;10201627;29;20044;-80
2023/04/07 15:41:46;;;;;;;15.90;11.27;;;;;;;15.44;31.94;100531.66;10200238;29;20043;-81
2023/04/07 15:46:49;;;;;;;19.25;10.88;;;;;;;15.36;32.38;100528.84;10211622;29;20411;-81
2023/04/07 15:51:52;;;;;;;15.20;11.77;;;;;;;15.31;32.30;100531.13;10208137;29;20079;-82
2023/04/07 15:56:56;;;;;;;15.68;11.68;;;;;;;15.35;32.45;100540.66;10202244;29;20726;-82
2023/04/07 16:01:59;;;;;;;20.60;11.65;;;;;;;15.21;32.26;100543.84;10208552;29;20043;-81
2023/04/07 16:07:02;;;;;;;14.48;10.85;;;;;;;15.13;32.52;100546.47;10204406;29;20044;-81
2023/04/07 16:12:06;;;;;;;15.63;10.63;;;;;;;15.06;32.71;100548.91;10199944;29;20074;-81
2023/04/07 16:17:09;;;;;;;17.70;11.15;;;;;;;15.01;32.95;100554.78;10203960;29;20154;-80
2023/04/07 16:22:12;;;;;;;15.95;10.85;;;;;;;14.82;32.72;100562.97;10202433;29;20123;-80
2023/04/07 16:27:16;;;;;;;21.65;14.25;;;;;;;14.77;32.96;100560.69;10208800;29;20088;-81
2023/04/07 16:32:19;;;;;;;16.17;11.80;;;;;;;14.75;32.88;100564.53;10198350;29;20063;-81
2023/04/07 16:37:21;;;;;;;16.63;11.40;;;;;;;14.66;33.30;100566.28;10197074;29;20384;-80
2023/04/07 16:42:27;;;;;;;16.75;11.55;;;;;;;14.54;33.36;100578.28;10201139;29;20066;-82
2023/04/07 16:47:31;;;;;;;17.42;11.98;;;;;;;14.39;32.92;100577.84;10203099;29;20036;-80
2023/04/07 16:52:33;;;;;;;18.85;11.95;;;;;;;14.11;33.63;100579.56;10200618;29;20040;-81
2023/04/07 16:57:38;;;;;;;19.67;11.38;;;;;;;13.97;33.69;100583.53;10206297;29;20040;-82
2023/04/07 17:02:40;;;;;;;16.13;11.75;;;;;;;13.74;33.96;100609.09;10204127;29;20047;-83
2023/04/07 17:07:43;;;;;;;14.05;11.43;;;;;;;13.47;34.62;100608.75;10203123;29;20050;-81
2023/04/07 17:12:51;;;;;;;18.55;11.98;;;;;;;13.30;34.89;100614.75;10216667;29;20035;-80
2023/04/07 17:17:54;;;;;;;15.85;11.63;;;;;;;13.22;35.56;100620.84;10199644;29;20099;-80
2023/04/07 17:22:57;;;;;;;14.75;10.93;;;;;;;13.06;35.91;100623.19;10205325;29;20043;-79
2023/04/07 17:28:01;;;;;;;18.73;11.02;;;;;;;12.97;35.20;100632.97;10209453;29;20127;-79
2023/04/07 17:33:06;;;;;;;16.25;10.07;;;;;;;12.88;35.37;100639.13;10213302;29;20063;-80
2023/04/07 17:38:10;;;;;;;12.52;9.48;;;;;;;12.71;35.68;100643.28;10207729;29;20102;-83
2023/04/07 17:43:15;;;;;;;14.20;9.65;;;;;;;12.46;35.80;100657.16;10207274;29;20064;-81
2023/04/07 17:48:17;;;;;;;13.82;9.65;;;;;;;12.28;36.16;100663.09;10208313;29;20053;-83
2023/04/07 17:53:20;;;;;;;;;;;;;;;12.12;36.56;100671.59;10206120;29;20068;-81
2023/04/07 17:58:24;;;;;;;17.30;10.13;;;;;;;11.88;36.94;100685.22;10198349;29;19966;-81
2023/04/07 18:03:27;;;;;;;14.68;9.70;;;;;;;11.73;36.92;100690.00;10203130;29;20073;-82
2023/04/07 18:08:30;;;;;;;13.32;8.95;;;;;;;11.64;37.38;100700.69;10206991;29;20044;-81
2023/04/07 18:13:35;;;;;;;14.82;9.07;;;;;;;11.49;37.67;100706.31;10206204;29;20491;-81
2023/04/07 18:18:37;;;;;;;14.02;10.20;;;;;;;11.38;38.15;100706.31;10204784;29;20083;-80
2023/04/07 18:23:40;;;;;;;17.67;11.93;;;;;;;11.35;38.34;100719.13;10205255;29;20029;-83
2023/04/07 18:28:45;;;;;;;18.48;11.95;;;;;;;11.22;38.66;100721.94;10201041;29;20044;-81
2023/04/07 18:33:48;;;;;;;16.35;11.02;;;;;;;11.09;39.64;100730.06;10215470;29;20048;-81
2023/04/07 18:38:51;;;;;;;18.80;10.55;;;;;;;10.88;39.30;100734.41;10207192;29;20066;-81
2023/04/07 18:43:55;;;;;;;14.95;10.68;;;;;;;10.71;39.38;100739.25;10218656;29;20052;-81
2023/04/07 18:48:58;;;;;;;17.15;11.55;;;;;;;10.65;39.25;100747.78;10217722;29;20051;-84
2023/04/07 18:54:00;;;;;;;;;;;;;;;10.60;39.56;100761.56;10208916;29;20108;-82
2023/04/07 18:59:06;;;;;;;16.92;12.15;;;;;;;10.54;39.86;100764.72;10218747;29;19947;-81
2023/04/07 19:04:08;;;;;;;18.80;12.70;;;;;;;10.48;39.55;100775.06;10206135;29;20036;-83
2023/04/07 19:09:11;;;;;;;24.15;12.20;;;;;;;10.41;39.88;100779.16;10212392;29;20087;-80
2023/04/07 19:14:15;;;;;;;18.15;12.82;;;;;;;10.34;40.18;100785.00;10218368;29;20040;-82
2023/04/07 19:19:18;;;;;;;18.40;11.70;;;;;;;10.12;40.65;100792.88;10220821;29;20036;-82
2023/04/07 19:24:21;;;;;;;18.67;11.75;;;;;;;10.12;40.65;100792.88;10220341;29;20047;-81
2023/04/07 19:29:25;;;;;;;16.02;9.70;;;;;;;10.07;40.44;100797.75;10219181;29;20064;-82
2023/04/07 19:34:28;;;;;;;18.77;11.88;;;;;;;10.01;40.96;100801.75;10214766;29;20036;-82
2023/04/07 19:39:31;;;;;;;;;;;;;;;9.93;40.87;100810.34;10216997;29;20048;-80
2023/04/07 19:44:36;;;;;;;15.00;10.85;;;;;;;9.82;41.04;100814.69;10218137;29;20467;-83
2023/04/07 19:49:39;;;;;;;14.38;10.25;;;;;;;9.73;40.84;100819.75;10207308;29;20050;-81
2023/04/07 19:54:42;;;;;;;17.02;11.15;;;;;;;9.68;41.18;100819.25;10236302;29;20091;-79
2023/04/07 19:59:47;;;;;;;16.00;10.55;;;;;;;9.69;41.09;100820.94;10215101;29;20044;-83
2023/04/07 20:04:50;;;;;;;18.42;11.00;;;;;;;9.57;41.18;100821.81;10214084;29;20043;-83
2023/04/07 20:09:53;;;;;;;16.80;10.68;;;;;;;9.49;41.41;100827.72;10215661;29;20044;-81
2023/04/07 20:14:58;;;;;;;19.27;12.05;;;;;;;9.44;41.45;100834.38;10214847;29;20043;-81
2023/04/07 20:20:00;;;;;;;17.95;10.95;;;;;;;9.35;41.48;100837.66;10222963;29;20052;-82
2023/04/07 20:25:04;;;;;;;;;;;;;;;9.24;41.46;100839.28;10215776;29;20036;-82
2023/04/07 20:30:09;;;;;;;18.02;12.77;;;;;;;9.13;42.06;100849.00;10219169;29;19923;-82
2023/04/07 20:35:12;;;;;;;17.20;11.57;;;;;;;8.97;42.09;100849.19;10213663;29;20044;-82
2023/04/07 20:40:15;;;;;;;17.25;11.65;;;;;;;8.84;42.62;100854.50;10212466;29;20107;-80
2023/04/07 20:45:21;;;;;;;13.50;10.20;;;;;;;8.80;42.46;100858.31;10220447;29;20056;-79
2023/04/07 20:50:24;;;;;;;15.70;10.35;;;;;;;8.75;42.43;100871.16;10225442;29;20059;-80
2023/04/07 20:55:27;;;;;;;15.40;10.63;;;;;;;8.77;43.05;100875.44;10225516;29;20042;-79
2023/04/07 21:00:31;;;;;;;16.05;12.18;;;;;;;8.78;43.27;100876.34;10214202;29;20140;-79
2023/04/07 21:05:34;;;;;;;24.98;14.75;;;;;;;8.67;43.28;100889.56;10217793;29;20093;-81
2023/04/07 21:10:37;;;;;;;21.08;14.55;;;;;;;8.58;44.05;100885.66;10222021;29;20660;-79
2023/04/07 21:15:42;;;;;;;26.45;15.25;;;;;;;8.36;44.77;100891.50;10217370;29;20067;-81
2023/04/07 21:20:46;;;;;;;15.75;10.93;;;;;;;8.22;45.05;100884.34;10224724;29;20071;-81
2023/04/07 21:25:48;;;;;;;13.52;9.38;;;;;;;8.00;45.11;100890.19;10231731;29;20123;-80
2023/04/07 21:30:54;;;;;;;13.27;8.60;;;;;;;7.97;45.24;100895.72;10221035;29;20103;-80
2023/04/07 21:35:57;;;;;;;15.57;9.68;;;;;;;7.97;45.49;100900.22;10219653;29;20047;-79
2023/04/07 21:41:00;;;;;;;18.25;10.75;;;;;;;8.02;45.52;100920.38;10214512;29;20060;-81
2023/04/07 21:46:04;;;;;;;17.60;11.57;;;;;;;8.00;45.78;100910.72;10208729;29;20040;-82
2023/04/07 21:51:07;;;;;;;21.15;12.10;;;;;;;7.91;45.51;100913.00;10221541;29;20149;-82
2023/04/07 21:56:11;;;;;;;17.50;11.93;;;;;;;7.84;45.75;100917.00;10217002;29;20505;-80
2023/04/07 22:01:17;;;;;;;19.17;12.20;;;;;;;7.76;45.77;100915.75;10216863;29;20040;-81
2023/04/07 22:06:20;;;;;;;19.90;11.60;;;;;;;7.67;46.34;100922.53;10215670;29;20146;-83
2023/04/07 22:11:23;;;;;;;15.95;10.65;;;;;;;7.59;46.22;100917.63;10217449;29;20048;-82
2023/04/07 22:16:27;;;;;;;16.35;10.38;;;;;;;7.56;46.23;100930.34;10219631;29;20091;-84
2023/04/07 22:21:31;;;;;;;13.80;9.40;;;;;;;7.49;46.73;100935.22;10215786;29;20048;-81
2023/04/07 22:26:34;;;;;;;13.77;9.50;;;;;;;7.40;47.19;100935.72;10216681;29;20032;-83
2023/04/07 22:31:38;;;;;;;12.13;9.07;;;;;;;7.33;47.57;100937.06;10217655;29;20211;-83
2023/04/07 22:36:41;;;;;;;15.02;9.98;;;;;;;7.21;47.68;100934.16;10220381;29;20043;-83
2023/04/07 22:41:43;;;;;;;15.15;9.38;;;;;;;7.17;48.00;100945.97;10216044;29;20095;-81
2023/04/07 22:46:48;;;;;;;13.85;8.80;;;;;;;7.11;48.10;100942.78;10220523;29;20071;-80
2023/04/07 22:51:51;;;;;;;13.75;9.23;;;;;;;7.04;48.48;100950.28;10217103;29;20123;-79
2023/04/07 22:56:53;;;;;;;12.63;8.32;;;;;;;6.93;48.87;100955.38;10224497;29;20078;-80
2023/04/07 23:01:57;;;;;;;11.13;8.30;;;;;;;6.83;48.96;100955.88;10220470;29;20043;-78
2023/04/07 23:07:00;;;;;;;14.68;8.63;;;;;;;6.75;49.46;100959.94;10218570;29;20068;-80
2023/04/07 23:12:04;;;;;;;12.57;8.40;;;;;;;6.67;49.69;100972.84;10234996;28;20051;-82
2023/04/07 23:17:08;;;;;;;14.68;9.10;;;;;;;6.65;49.81;100975.59;10252664;28;20036;-81
2023/04/07 23:22:11;;;;;;;16.40;8.98;;;;;;;6.68;49.76;100978.09;10218479;29;20148;-81